PWSweather.com
Personal Weather Stations
Station Observations
RTINEZ
TerrassaES 08226

TerrassaES 08226

Lat: 41.5762194, Lon: 2.028993700000001

Elevation: 367

Station Type: Watson W8681

Latest ConditionsUpdated 7:15:01 AM GMT+01:01 Wednesday, Feb 20, 2019
Currently Today's Max Today's Min Today's Average
Temperature 48.4°F9.1°C 50.0°F10.0°C 48.4°F9.1°C 49.6°F9.8°C
Dew Point 43.8°F6.6°C 45.2°F7.3°C 43.5°F6.4°C 44.7°F7.1°C
Winds Calm Calm 3.1 mph -5.0 kmh - - 1.2 mph 1.9 kmh
Wind Gusts 1.6 mph2.6 kmh 5.4 mph8.7 kmh - -
Humidity 84% 84% 82% 83%
Pressure 30.15 in1021.0 mb 30.16 in1021.3 mb 28.91 in979.0 mb -
Hour Temp Dew Point Humidity Winds Wind Gusts Pressure Precip Precip Rate Daily Precip Total
07:15 AM 48.4°F9.1°C 43.8°F6.6°C 84% Calm Calm 1.6 mph2.6 kmh 30.15 in1021.0 mb 0.00 in0.0 mm 0.00 in0.0 mm 0.00 in0.0 mm
07:00 AM 48.4°F9.1°C 43.5°F6.4°C 83% 0.7 mph NW1.1 kmh NW 1.6 mph2.6 kmh 28.92 in979.3 mb 0.00 in0.0 mm 0.00 in0.0 mm 0.00 in0.0 mm
06:45 AM 48.7°F9.3°C 43.8°F6.6°C 83% 0.7 mph NW1.1 kmh NW 2.2 mph3.5 kmh 30.15 in1021.0 mb 0.00 in0.0 mm 0.00 in0.0 mm 0.00 in0.0 mm
06:30 AM 49.1°F9.5°C 44.2°F6.8°C 83% 0.7 mph W1.1 kmh W 2.2 mph3.5 kmh 28.91 in979.0 mb 0.00 in0.0 mm 0.00 in0.0 mm 0.00 in0.0 mm
06:15 AM 49.3°F9.6°C 44.3°F6.8°C 83% 0.7 mph WSW1.1 kmh WSW 3.1 mph5.0 kmh 28.91 in979.0 mb 0.00 in0.0 mm 0.00 in0.0 mm 0.00 in0.0 mm
06:00 AM 49.3°F9.6°C 44.3°F6.8°C 83% 1.6 mph W2.6 kmh W 3.1 mph5.0 kmh 30.14 in1020.7 mb 0.00 in0.0 mm 0.00 in0.0 mm 0.00 in0.0 mm
05:45 AM 49.5°F9.7°C 44.5°F6.9°C 83% 0.7 mph WNW1.1 kmh WNW 3.8 mph6.1 kmh 28.92 in979.3 mb 0.00 in0.0 mm 0.00 in0.0 mm 0.00 in0.0 mm
05:30 AM 49.5°F9.7°C 44.5°F6.9°C 83% 2.2 mph WSW3.5 kmh WSW 4.5 mph7.2 kmh 28.92 in979.3 mb 0.00 in0.0 mm 0.00 in0.0 mm 0.00 in0.0 mm
05:15 AM 49.5°F9.7°C 44.5°F6.9°C 83% 1.6 mph W2.6 kmh W 3.8 mph6.1 kmh 28.92 in979.3 mb 0.00 in0.0 mm 0.00 in0.0 mm 0.00 in0.0 mm
05:00 AM 49.5°F9.7°C 44.5°F6.9°C 83% 0.7 mph W1.1 kmh W 3.8 mph6.1 kmh 30.14 in1020.7 mb 0.00 in0.0 mm 0.00 in0.0 mm 0.00 in0.0 mm
04:45 AM 49.6°F9.8°C 45.0°F7.2°C 84% Calm Calm 3.8 mph6.1 kmh 30.14 in1020.7 mb 0.00 in0.0 mm 0.00 in0.0 mm 0.00 in0.0 mm
04:30 AM 49.6°F9.8°C 44.7°F7.1°C 83% 0.7 mph WSW1.1 kmh WSW 3.8 mph6.1 kmh 30.14 in1020.7 mb 0.00 in0.0 mm 0.00 in0.0 mm 0.00 in0.0 mm
04:15 AM 49.8°F9.9°C 45.2°F7.3°C 84% 3.1 mph W5.0 kmh W 5.4 mph8.7 kmh 28.92 in979.3 mb 0.00 in0.0 mm 0.00 in0.0 mm 0.00 in0.0 mm
04:00 AM 49.8°F9.9°C 45.2°F7.3°C 84% 2.2 mph W3.5 kmh W 4.5 mph7.2 kmh 28.92 in979.3 mb 0.00 in0.0 mm 0.00 in0.0 mm 0.00 in0.0 mm
03:45 AM 49.6°F9.8°C 45.0°F7.2°C 84% 0.7 mph WSW1.1 kmh WSW 3.8 mph6.1 kmh 28.92 in979.3 mb 0.00 in0.0 mm 0.00 in0.0 mm 0.00 in0.0 mm
03:30 AM 49.5°F9.7°C 44.5°F6.9°C 83% 2.2 mph WSW3.5 kmh WSW 3.8 mph6.1 kmh 30.15 in1021.0 mb 0.00 in0.0 mm 0.00 in0.0 mm 0.00 in0.0 mm
03:15 AM 49.8°F9.9°C 44.9°F7.2°C 83% Calm Calm 3.1 mph5.0 kmh 30.15 in1021.0 mb 0.00 in0.0 mm 0.00 in0.0 mm 0.00 in0.0 mm
03:00 AM 49.8°F9.9°C 44.9°F7.2°C 83% 0.7 mph NW1.1 kmh NW 3.8 mph6.1 kmh 30.16 in1021.3 mb 0.00 in0.0 mm 0.00 in0.0 mm 0.00 in0.0 mm
02:45 AM 49.8°F9.9°C 44.9°F7.2°C 83% 0.7 mph WSW1.1 kmh WSW 3.8 mph6.1 kmh 30.16 in1021.3 mb 0.00 in0.0 mm 0.00 in0.0 mm 0.00 in0.0 mm
02:30 AM 50.0°F10.0°C 44.7°F7.1°C 82% 1.6 mph W2.6 kmh W 3.8 mph6.1 kmh 28.94 in980.0 mb 0.00 in0.0 mm 0.00 in0.0 mm 0.00 in0.0 mm
02:15 AM 50.0°F10.0°C 44.7°F7.1°C 82% 1.6 mph W2.6 kmh W 3.8 mph6.1 kmh 30.16 in1021.3 mb 0.00 in0.0 mm 0.00 in0.0 mm 0.00 in0.0 mm
02:00 AM 50.0°F10.0°C 44.7°F7.1°C 82% 0.7 mph W1.1 kmh W 5.4 mph8.7 kmh 30.16 in1021.3 mb 0.00 in0.0 mm 0.00 in0.0 mm 0.00 in0.0 mm
01:45 AM 50.0°F10.0°C 45.0°F7.2°C 83% 2.2 mph W3.5 kmh W 5.4 mph8.7 kmh 30.16 in1021.3 mb 0.00 in0.0 mm 0.00 in0.0 mm 0.00 in0.0 mm
01:30 AM 50.0°F10.0°C 45.0°F7.2°C 83% 3.1 mph WSW5.0 kmh WSW 5.4 mph8.7 kmh 30.16 in1021.3 mb 0.00 in0.0 mm 0.00 in0.0 mm 0.00 in0.0 mm
01:15 AM 50.0°F10.0°C 45.0°F7.2°C 83% 0.7 mph WSW1.1 kmh WSW 4.5 mph7.2 kmh 28.94 in980.0 mb 0.00 in0.0 mm 0.00 in0.0 mm 0.00 in0.0 mm
01:00 AM 50.0°F10.0°C 45.0°F7.2°C 83% 3.1 mph WSW5.0 kmh WSW 5.4 mph8.7 kmh 30.16 in1021.3 mb 0.00 in0.0 mm 0.00 in0.0 mm 0.00 in0.0 mm
12:45 AM 49.8°F9.9°C 45.2°F7.3°C 84% 0.7 mph NW1.1 kmh NW 3.1 mph5.0 kmh 30.16 in1021.3 mb 0.00 in0.0 mm 0.00 in0.0 mm 0.00 in0.0 mm
12:30 AM 50.0°F10.0°C 45.0°F7.2°C 83% Calm Calm 3.1 mph5.0 kmh 28.92 in979.3 mb 0.00 in0.0 mm 0.00 in0.0 mm 0.00 in0.0 mm
12:15 AM 49.6°F9.8°C 45.0°F7.2°C 84% 3.1 mph WSW5.0 kmh WSW 4.5 mph7.2 kmh 30.15 in1021.0 mb 0.00 in0.0 mm 0.00 in0.0 mm 0.00 in0.0 mm
12:00 AM 49.6°F9.8°C 45.0°F7.2°C 84% 0.7 mph NW1.1 kmh NW 1.6 mph2.6 kmh 28.91 in979.0 mb 0.00 in0.0 mm 0.00 in0.0 mm 0.00 in0.0 mm